Time;durP1;ratioP1;P1;durP2;ratioP2;P2;SDS_P1;SDS_P2;PMS_P1;PMS_P2;Temp;Humidity;BMP_temperature;BMP_pressure;BME280_temperature;BME280_humidity;BME280_pressure;Samples;Min_cycle;Max_cycle;Signal;HPM_P1;HPM_P2
2021/06/14 00:01:46;;;;;;;6.37;5.73;;;15.80;99.90;;;;;;5114970;28;20520;-70
2021/06/14 00:04:12;;;;;;;6.80;5.10;;;15.80;99.90;;;;;;5114882;28;20157;-70
2021/06/14 00:06:37;;;;;;;6.30;5.27;;;15.80;99.90;;;;;;5114069;28;20176;-70
2021/06/14 00:09:04;;;;;;;8.30;5.30;;;15.70;99.90;;;;;;5114945;28;20167;-70
2021/06/14 00:11:30;;;;;;;6.97;4.93;;;15.70;99.90;;;;;;5114809;28;20229;-70
2021/06/14 00:13:56;;;;;;;8.00;5.23;;;15.70;99.90;;;;;;5103073;28;20495;-70
2021/06/14 00:16:21;;;;;;;6.70;5.03;;;15.60;99.90;;;;;;5094348;28;20159;-70
2021/06/14 00:18:47;;;;;;;5.93;5.00;;;15.70;99.90;;;;;;5094133;28;20187;-70
2021/06/14 00:21:13;;;;;;;6.97;5.17;;;15.60;99.90;;;;;;5093972;28;20155;-70
2021/06/14 00:23:40;;;;;;;6.90;5.10;;;15.60;99.90;;;;;;5094700;28;20497;-70
2021/06/14 00:26:10;;;;;;;7.70;5.67;;;15.50;99.90;;;;;;5094292;28;20471;-70
2021/06/14 00:28:37;;;;;;;8.53;5.80;;;15.50;99.90;;;;;;5094150;28;20397;-70
2021/06/14 00:31:03;;;;;;;6.13;4.87;;;15.50;99.90;;;;;;5093996;28;20393;-70
2021/06/14 00:33:28;;;;;;;7.13;4.50;;;15.50;99.90;;;;;;5093972;28;20741;-70
2021/06/14 00:35:54;;;;;;;7.77;5.30;;;15.40;99.90;;;;;;5093936;28;20519;-70
2021/06/14 00:38:20;;;;;;;6.73;5.30;;;15.40;99.90;;;;;;5093698;28;20648;-70
2021/06/14 00:40:47;;;;;;;10.90;6.10;;;15.40;99.90;;;;;;5094791;28;20167;-70
2021/06/14 00:43:13;;;;;;;8.53;5.50;;;15.30;99.90;;;;;;5093817;28;20894;-70
2021/06/14 00:45:42;;;;;;;8.60;5.40;;;15.30;99.90;;;;;;5093618;28;20436;-70
2021/06/14 00:48:09;;;;;;;5.77;4.57;;;15.30;99.90;;;;;;5093186;28;20400;-70
2021/06/14 00:50:41;;;;;;;6.30;5.27;;;15.30;99.90;;;;;;5093758;28;20397;-70
2021/06/14 00:53:13;;;;;;;7.07;5.57;;;15.20;99.90;;;;;;5093634;28;20404;-70
2021/06/14 00:55:40;;;;;;;5.43;4.60;;;15.20;99.90;;;;;;5093932;28;20389;-71
2021/06/14 00:58:06;;;;;;;6.40;4.87;;;15.10;99.90;;;;;;5104723;28;20530;-71
2021/06/14 01:00:32;;;;;;;10.13;5.23;;;15.10;99.90;;;;;;5113683;28;20504;-71
2021/06/14 01:02:58;;;;;;;6.60;4.87;;;15.10;99.90;;;;;;5113702;28;21069;-70
2021/06/14 01:05:28;;;;;;;6.33;5.00;;;15.10;99.90;;;;;;5114061;28;20196;-70
2021/06/14 01:07:54;;;;;;;5.10;4.40;;;15.00;99.90;;;;;;5113674;28;20392;-70
2021/06/14 01:10:20;;;;;;;7.93;4.73;;;15.00;99.90;;;;;;5113956;28;20397;-70
2021/06/14 01:13:06;;;;;;;6.80;5.10;;;15.00;99.90;;;;;;5113648;28;20790;-70
2021/06/14 01:15:34;;;;;;;8.20;4.83;;;15.00;99.90;;;;;;5098114;28;20853;-71
2021/06/14 01:18:04;;;;;;;7.37;5.30;;;14.90;99.90;;;;;;5093116;28;20456;-70
2021/06/14 01:23:44;;;;;;;7.87;5.10;;;14.90;99.90;;;;;;5147487;27;20758;-71
2021/06/14 01:26:20;;;;;;;7.13;4.97;;;14.80;99.90;;;;;;5130478;28;20391;-71
2021/06/14 01:28:49;;;;;;;9.30;5.70;;;14.80;99.90;;;;;;5131145;28;20380;-71
2021/06/14 01:31:15;;;;;;;6.63;4.33;;;14.80;99.90;;;;;;5126804;28;20500;-71
2021/06/14 01:33:42;;;;;;;6.13;4.90;;;14.80;99.90;;;;;;5110518;28;20380;-70
2021/06/14 01:36:12;;;;;;;6.70;4.90;;;14.80;99.90;;;;;;5110570;28;20604;-71
2021/06/14 01:38:40;;;;;;;7.20;5.20;;;14.70;99.90;;;;;;5110653;28;20475;-71
2021/06/14 01:41:10;;;;;;;6.27;5.63;;;14.70;99.90;;;;;;5110461;28;20436;-71
2021/06/14 01:43:40;;;;;;;8.83;5.83;;;14.70;99.90;;;;;;5110379;28;20388;-71
2021/06/14 01:46:10;;;;;;;5.83;4.80;;;14.60;99.90;;;;;;5125429;28;20439;-71
2021/06/14 01:48:37;;;;;;;6.60;5.20;;;14.60;99.90;;;;;;5123514;28;20503;-71
2021/06/14 01:51:05;;;;;;;6.90;5.47;;;14.60;99.90;;;;;;5110301;28;20402;-70
2021/06/14 01:53:31;;;;;;;7.83;5.90;;;14.50;99.90;;;;;;5110603;28;20385;-71
2021/06/14 01:55:57;;;;;;;6.77;5.30;;;14.50;99.90;;;;;;5110363;28;20414;-71
2021/06/14 01:58:23;;;;;;;5.83;4.93;;;14.50;99.90;;;;;;5110022;28;20241;-71
2021/06/14 02:00:50;;;;;;;5.93;4.57;;;14.50;99.90;;;;;;5110039;28;20389;-71
2021/06/14 02:03:16;;;;;;;5.60;4.93;;;14.40;99.90;;;;;;5110122;28;20407;-71
2021/06/14 02:05:43;;;;;;;8.10;4.83;;;14.40;99.90;;;;;;5110574;28;20415;-71
2021/06/14 02:08:11;;;;;;;8.83;5.43;;;14.40;99.90;;;;;;5110156;28;20749;-71
2021/06/14 02:10:37;;;;;;;6.80;5.23;;;14.40;99.90;;;;;;5110048;28;20385;-71
2021/06/14 02:13:04;;;;;;;6.67;4.80;;;14.30;99.90;;;;;;5109861;28;20428;-71
2021/06/14 02:15:30;;;;;;;10.00;5.30;;;14.30;99.90;;;;;;5110659;28;20391;-71
2021/06/14 02:17:58;;;;;;;7.13;4.80;;;14.30;99.90;;;;;;5130258;28;20884;-71
2021/06/14 02:20:25;;;;;;;5.77;5.17;;;14.20;99.90;;;;;;5130307;28;20158;-71
2021/06/14 02:22:51;;;;;;;6.27;5.37;;;14.20;99.90;;;;;;5129500;28;20794;-71
2021/06/14 02:25:17;;;;;;;6.87;4.77;;;14.20;99.90;;;;;;5130087;28;20958;-71
2021/06/14 02:27:42;;;;;;;7.20;5.20;;;14.20;99.90;;;;;;5130079;28;20395;-71
2021/06/14 02:30:13;;;;;;;5.93;5.03;;;14.20;99.90;;;;;;5130059;28;20399;-71
2021/06/14 02:32:38;;;;;;;5.50;5.00;;;14.20;99.90;;;;;;5126466;28;20257;-71
2021/06/14 02:35:06;;;;;;;7.90;5.27;;;14.10;99.90;;;;;;5116193;28;20491;-71
2021/06/14 02:37:33;;;;;;;6.93;5.40;;;14.10;99.90;;;;;;5116830;28;20680;-71
2021/06/14 02:39:59;;;;;;;7.10;4.90;;;14.10;99.90;;;;;;5115590;28;20447;-71
2021/06/14 02:42:25;;;;;;;5.90;4.30;;;14.10;99.90;;;;;;5116103;28;20943;-71
2021/06/14 02:44:51;;;;;;;6.17;5.57;;;14.10;99.90;;;;;;5116213;28;20439;-71
2021/06/14 02:47:17;;;;;;;9.47;5.50;;;14.10;99.90;;;;;;5116128;28;20820;-71
2021/06/14 02:49:44;;;;;;;10.17;5.63;;;14.10;99.90;;;;;;5116077;28;20388;-71
2021/06/14 02:52:13;;;;;;;6.50;5.10;;;14.00;99.90;;;;;;5116251;28;20400;-71
2021/06/14 02:54:43;;;;;;;7.00;5.67;;;14.00;99.90;;;;;;5115705;28;20404;-71
2021/06/14 02:57:11;;;;;;;6.67;5.63;;;14.00;99.90;;;;;;5115586;28;20491;-69
2021/06/14 02:59:38;;;;;;;8.47;5.80;;;14.00;99.90;;;;;;5116210;28;20481;-71
2021/06/14 03:02:04;;;;;;;8.67;6.00;;;14.00;99.90;;;;;;5115730;28;20872;-71
2021/06/14 03:04:32;;;;;;;8.60;5.93;;;14.00;99.90;;;;;;5115607;28;20449;-71
2021/06/14 03:06:58;;;;;;;7.77;5.47;;;13.90;99.90;;;;;;5115675;28;20908;-71
2021/06/14 03:09:25;;;;;;;6.30;5.17;;;13.90;99.90;;;;;;5115775;28;20420;-71
2021/06/14 03:11:52;;;;;;;8.20;5.13;;;13.90;99.90;;;;;;5115530;28;20622;-71
2021/06/14 03:14:18;;;;;;;11.00;5.60;;;13.90;99.90;;;;;;5114577;28;20827;-71
2021/06/14 03:16:44;;;;;;;7.47;5.27;;;13.90;99.90;;;;;;5104173;28;20413;-71
2021/06/14 03:19:11;;;;;;;6.13;5.53;;;13.90;99.90;;;;;;5095077;28;20394;-71
2021/06/14 03:21:38;;;;;;;5.87;5.30;;;13.90;99.90;;;;;;5094824;28;20460;-71
2021/06/14 03:24:04;;;;;;;6.97;5.37;;;13.90;99.90;;;;;;5095047;28;20750;-71
2021/06/14 03:26:36;;;;;;;8.20;5.47;;;13.90;99.90;;;;;;5094951;28;20808;-71
2021/06/14 03:29:03;;;;;;;6.50;5.50;;;13.90;99.90;;;;;;5094900;28;20389;-71
2021/06/14 03:31:29;;;;;;;6.07;5.40;;;13.90;99.90;;;;;;5095529;28;20417;-71
2021/06/14 03:33:55;;;;;;;10.97;6.33;;;13.90;99.90;;;;;;5094835;28;20469;-71
2021/06/14 03:36:22;;;;;;;6.90;4.87;;;13.90;99.90;;;;;;5094910;28;20764;-71
2021/06/14 03:38:50;;;;;;;7.20;5.93;;;13.90;99.90;;;;;;5094905;28;20155;-71
2021/06/14 03:41:16;;;;;;;7.53;5.90;;;14.00;99.90;;;;;;5094602;28;20523;-70
2021/06/14 03:43:42;;;;;;;9.50;5.53;;;14.00;99.90;;;;;;5094425;28;20768;-71
2021/06/14 03:46:07;;;;;;;14.33;5.87;;;13.90;99.90;;;;;;5093849;28;20397;-71
2021/06/14 03:48:33;;;;;;;7.80;5.60;;;14.00;99.90;;;;;;5109722;28;20170;-70
2021/06/14 03:50:59;;;;;;;10.60;7.33;;;14.00;99.90;;;;;;5114919;28;20154;-71
2021/06/14 03:53:30;;;;;;;9.23;6.30;;;14.00;99.90;;;;;;5115029;28;20228;-71
2021/06/14 03:55:57;;;;;;;6.47;5.77;;;14.00;99.90;;;;;;5114913;28;20207;-71
2021/06/14 03:58:23;;;;;;;8.50;5.17;;;14.00;99.90;;;;;;5114583;28;20750;-71
2021/06/14 04:00:48;;;;;;;10.30;5.40;;;14.00;99.90;;;;;;5114444;28;20484;-71
2021/06/14 04:03:14;;;;;;;6.50;5.60;;;14.00;99.90;;;;;;5114639;28;20615;-71
2021/06/14 04:05:40;;;;;;;8.40;5.20;;;14.00;99.90;;;;;;5113913;28;20537;-71
2021/06/14 04:08:05;;;;;;;5.23;4.73;;;14.10;99.90;;;;;;5114662;28;20592;-70
2021/06/14 04:10:31;;;;;;;7.30;5.20;;;14.10;99.90;;;;;;5114468;28;20569;-71
2021/06/14 04:12:57;;;;;;;7.33;5.10;;;14.10;99.90;;;;;;5114487;28;20245;-71
2021/06/14 04:15:22;;;;;;;9.50;7.13;;;14.10;99.90;;;;;;5114410;28;20667;-71
2021/06/14 04:17:48;;;;;;;6.13;4.77;;;14.10;99.90;;;;;;5114264;28;20158;-71
2021/06/14 04:20:14;;;;;;;7.30;5.70;;;14.10;99.90;;;;;;5114374;28;20186;-71
2021/06/14 04:22:40;;;;;;;10.97;5.37;;;14.10;99.90;;;;;;5113532;28;20222;-71
2021/06/14 04:25:05;;;;;;;8.07;5.60;;;14.10;99.90;;;;;;5114286;28;20851;-71
2021/06/14 04:27:31;;;;;;;8.43;4.93;;;14.10;99.90;;;;;;5111070;28;20169;-71
2021/06/14 04:29:57;;;;;;;4.73;4.20;;;14.10;99.90;;;;;;5100455;27;20663;-71
2021/06/14 04:32:23;;;;;;;8.53;4.77;;;14.10;99.90;;;;;;5106235;28;20221;-71
2021/06/14 04:34:49;;;;;;;10.47;5.53;;;14.20;99.90;;;;;;5112661;28;20200;-71
2021/06/14 04:37:15;;;;;;;7.70;4.33;;;14.20;99.90;;;;;;5093451;28;20401;-71
2021/06/14 04:39:40;;;;;;;7.20;4.43;;;14.20;99.90;;;;;;5093956;28;20178;-71
2021/06/14 04:42:06;;;;;;;5.77;4.30;;;14.20;99.90;;;;;;5097907;28;20237;-71
2021/06/14 04:44:32;;;;;;;5.50;4.20;;;14.30;99.90;;;;;;5093242;28;20159;-71
2021/06/14 04:46:58;;;;;;;6.30;4.60;;;14.30;99.90;;;;;;5098973;28;21260;-71
2021/06/14 04:49:24;;;;;;;9.30;4.73;;;14.30;99.90;;;;;;5103497;28;20236;-71
2021/06/14 04:51:50;;;;;;;4.70;3.80;;;14.40;99.90;;;;;;5093304;28;20559;-71
2021/06/14 04:54:15;;;;;;;7.70;3.93;;;14.40;99.90;;;;;;5093360;28;20159;-71
2021/06/14 04:56:41;;;;;;;6.00;3.30;;;14.50;99.90;;;;;;5093518;28;20458;-71
2021/06/14 04:59:06;;;;;;;6.43;3.53;;;14.60;99.90;;;;;;5093273;28;20187;-71
2021/06/14 05:01:32;;;;;;;4.27;3.43;;;14.70;99.90;;;;;;5093261;28;20182;-71
2021/06/14 05:03:58;;;;;;;5.10;3.00;;;14.90;99.90;;;;;;5094039;28;20197;-71
2021/06/14 05:06:23;;;;;;;5.83;3.00;;;14.90;99.90;;;;;;5093112;28;20177;-71
2021/06/14 05:08:52;;;;;;;5.40;3.20;;;15.10;99.90;;;;;;5093230;28;20388;-71
2021/06/14 05:11:17;;;;;;;4.70;3.30;;;15.20;99.90;;;;;;5093133;28;20194;-71
2021/06/14 05:13:43;;;;;;;6.20;3.77;;;15.30;99.90;;;;;;5093769;28;20417;-71
2021/06/14 05:16:08;;;;;;;4.37;2.80;;;15.40;99.90;;;;;;5092747;28;20155;-71
2021/06/14 05:18:34;;;;;;;5.67;3.53;;;15.40;99.90;;;;;;5093433;28;20175;-71
2021/06/14 05:21:00;;;;;;;7.00;3.97;;;15.50;99.90;;;;;;5092585;28;20262;-71
2021/06/14 05:23:25;;;;;;;6.20;2.90;;;15.60;99.90;;;;;;5092870;28;20166;-71
2021/06/14 05:25:51;;;;;;;5.93;2.77;;;15.70;99.90;;;;;;5092897;28;20512;-71
2021/06/14 05:28:16;;;;;;;4.97;3.80;;;15.80;99.90;;;;;;5092700;28;20212;-71
2021/06/14 05:30:42;;;;;;;4.83;3.30;;;15.90;99.90;;;;;;5109799;28;20177;-71
2021/06/14 05:33:07;;;;;;;7.30;4.10;;;16.00;99.90;;;;;;5107766;28;20188;-71
2021/06/14 05:35:33;;;;;;;6.57;3.20;;;16.10;99.90;;;;;;5105257;28;20193;-71
2021/06/14 05:37:59;;;;;;;5.03;3.03;;;16.20;99.90;;;;;;5112142;28;20173;-71
2021/06/14 05:40:24;;;;;;;5.40;3.23;;;16.30;99.90;;;;;;5093144;28;20759;-71
2021/06/14 05:42:50;;;;;;;5.17;3.07;;;16.40;99.90;;;;;;5092820;28;20178;-71
2021/06/14 05:45:16;;;;;;;3.60;2.57;;;16.50;99.90;;;;;;5103205;28;20249;-71
2021/06/14 05:47:42;;;;;;;4.33;3.13;;;16.70;99.90;;;;;;5113264;28;20223;-71
2021/06/14 05:50:08;;;;;;;5.10;3.17;;;16.80;99.90;;;;;;5113357;28;20777;-71
2021/06/14 05:52:34;;;;;;;4.93;3.20;;;16.80;99.90;;;;;;5113460;28;20269;-71
2021/06/14 05:54:59;;;;;;;6.70;3.00;;;16.90;99.90;;;;;;5113486;28;20430;-71
2021/06/14 05:57:25;;;;;;;4.83;2.73;;;17.00;99.90;;;;;;5113395;28;20622;-71
2021/06/14 05:59:51;;;;;;;4.53;2.70;;;17.20;99.90;;;;;;5111966;28;20286;-71
2021/06/14 06:02:16;;;;;;;3.80;2.73;;;17.40;99.90;;;;;;5105611;28;20201;-71
2021/06/14 06:04:42;;;;;;;4.97;4.20;;;17.50;99.90;;;;;;5112202;28;20166;-71
2021/06/14 06:07:07;;;;;;;4.27;2.90;;;17.60;99.90;;;;;;5106799;28;20225;-71
2021/06/14 06:09:33;;;;;;;8.90;3.67;;;17.70;99.50;;;;;;5109175;28;20188;-71
2021/06/14 06:11:59;;;;;;;4.17;2.93;;;17.80;98.80;;;;;;5100645;28;20265;-71
2021/06/14 06:14:24;;;;;;;6.57;3.10;;;17.90;98.80;;;;;;5109656;28;20189;-71
2021/06/14 06:16:50;;;;;;;3.60;3.17;;;17.90;98.60;;;;;;5099148;28;20167;-71
2021/06/14 06:19:16;;;;;;;4.30;2.80;;;18.00;98.30;;;;;;5104082;28;20186;-71
2021/06/14 06:21:42;;;;;;;4.63;3.20;;;18.00;98.60;;;;;;5099082;28;20198;-71
2021/06/14 06:24:07;;;;;;;7.00;2.90;;;18.10;98.60;;;;;;5103093;27;20962;-71
2021/06/14 06:26:33;;;;;;;7.27;4.10;;;18.20;97.70;;;;;;5104930;28;20185;-71
2021/06/14 06:28:59;;;;;;;4.33;2.77;;;18.20;97.60;;;;;;5111200;28;20246;-71
2021/06/14 06:31:25;;;;;;;3.57;2.73;;;18.40;97.00;;;;;;5100900;28;20455;-71
2021/06/14 06:33:50;;;;;;;5.57;3.17;;;18.50;97.50;;;;;;5102062;28;20175;-71
2021/06/14 06:36:16;;;;;;;5.97;3.40;;;18.60;96.90;;;;;;5101651;28;20255;-71
2021/06/14 06:38:42;;;;;;;7.27;3.20;;;18.70;96.10;;;;;;5105259;27;20174;-71
2021/06/14 06:41:08;;;;;;;4.30;3.43;;;18.80;95.60;;;;;;5098512;28;20680;-71
2021/06/14 06:43:35;;;;;;;8.10;3.60;;;18.90;95.80;;;;;;5096897;28;20541;-71
2021/06/14 06:46:01;;;;;;;5.10;2.73;;;18.90;95.40;;;;;;5095881;28;20461;-71
2021/06/14 06:48:29;;;;;;;7.73;3.30;;;19.00;95.90;;;;;;5102751;28;20424;-71
2021/06/14 06:50:55;;;;;;;7.37;3.27;;;19.10;95.30;;;;;;5105016;28;20909;-71
2021/06/14 06:53:21;;;;;;;5.23;2.90;;;19.30;94.10;;;;;;5102897;28;20921;-71
2021/06/14 06:55:46;;;;;;;5.63;2.63;;;19.50;93.60;;;;;;5099929;28;20500;-71
2021/06/14 06:58:12;;;;;;;4.07;2.60;;;19.70;93.60;;;;;;5095780;28;20159;-71
2021/06/14 07:00:40;;;;;;;3.40;2.90;;;19.80;92.70;;;;;;5098488;28;20178;-71
2021/06/14 07:03:06;;;;;;;4.70;2.10;;;19.90;92.60;;;;;;5102119;28;20216;-71
2021/06/14 07:05:31;;;;;;;7.30;3.10;;;19.90;93.20;;;;;;5101596;28;20432;-71
2021/06/14 07:07:57;;;;;;;4.80;2.67;;;19.90;94.10;;;;;;5098405;28;20251;-71
2021/06/14 07:10:22;;;;;;;3.80;2.60;;;20.10;91.80;;;;;;5097916;28;20339;-71
2021/06/14 07:12:48;;;;;;;5.17;2.27;;;20.20;90.90;;;;;;5105187;28;20179;-71
2021/06/14 07:15:13;;;;;;;3.53;2.80;;;20.30;91.90;;;;;;5101554;28;20197;-72
2021/06/14 07:17:43;;;;;;;5.43;2.67;;;20.40;91.40;;;;;;5097434;28;20192;-71
2021/06/14 07:20:11;;;;;;;8.10;3.10;;;20.60;89.90;;;;;;5112820;28;20170;-71
2021/06/14 07:22:38;;;;;;;8.23;2.87;;;20.80;90.30;;;;;;5099632;28;20452;-71
2021/06/14 07:25:05;;;;;;;3.70;2.83;;;21.00;89.70;;;;;;5108982;28;20934;-71
2021/06/14 07:27:32;;;;;;;4.43;2.73;;;21.70;87.30;;;;;;5101128;27;20492;-71
2021/06/14 07:29:58;;;;;;;8.03;2.93;;;22.80;83.50;;;;;;5101291;28;20420;-71
2021/06/14 07:32:24;;;;;;;4.17;2.97;;;24.00;74.50;;;;;;5094954;28;20963;-71
2021/06/14 07:34:49;;;;;;;3.17;2.30;;;25.20;69.20;;;;;;5094908;28;20390;-72
2021/06/14 07:37:15;;;;;;;5.30;3.03;;;26.40;65.10;;;;;;5101122;28;20521;-70
2021/06/14 07:39:41;;;;;;;8.70;2.53;;;27.60;59.40;;;;;;5106822;28;20231;-69
2021/06/14 07:42:07;;;;;;;2.43;2.17;;;29.00;52.20;;;;;;5110518;27;20464;-70
2021/06/14 07:44:32;;;;;;;3.63;2.40;;;30.30;47.70;;;;;;5098651;27;20214;-70
2021/06/14 07:46:58;;;;;;;3.23;2.80;;;31.50;44.40;;;;;;5098462;27;20178;-70
2021/06/14 07:49:23;;;;;;;4.50;2.10;;;32.40;41.40;;;;;;5095973;28;20186;-70
2021/06/14 07:51:49;;;;;;;4.60;2.57;;;33.10;40.20;;;;;;5103029;28;20170;-70
2021/06/14 07:54:15;;;;;;;2.30;2.10;;;33.70;36.80;;;;;;5101209;27;20588;-70
2021/06/14 07:56:45;;;;;;;4.00;2.20;;;34.40;35.90;;;;;;5101975;28;20178;-70
2021/06/14 07:59:11;;;;;;;4.30;2.70;;;35.10;35.10;;;;;;5110974;28;21641;-70
2021/06/14 08:01:37;;;;;;;2.80;2.07;;;35.90;34.10;;;;;;5093723;28;20448;-70
2021/06/14 08:04:03;;;;;;;5.90;2.60;;;36.40;32.50;;;;;;5109268;28;20431;-71
2021/06/14 08:06:28;;;;;;;3.07;2.30;;;36.80;31.60;;;;;;5110107;28;20175;-71
2021/06/14 08:08:56;;;;;;;4.60;2.93;;;36.90;31.10;;;;;;5114844;28;20197;-71
2021/06/14 08:11:22;;;;;;;2.50;2.30;;;36.90;30.10;;;;;;5102084;28;20190;-71
2021/06/14 08:13:49;;;;;;;2.90;2.33;;;37.30;31.00;;;;;;5098323;28;20466;-71
2021/06/14 08:16:14;;;;;;;2.90;2.70;;;38.00;28.90;;;;;;5094088;28;20414;-71
2021/06/14 08:19:00;;;;;;;3.37;2.40;;;38.70;29.40;;;;;;5094261;28;20381;-71
2021/06/14 08:21:42;;;;;;;4.00;2.30;;;39.40;28.10;;;;;;5093953;28;20225;-71
2021/06/14 08:26:54;;;;;;;3.83;2.27;;;40.90;26.20;;;;;;5108857;28;20419;-71
2021/06/14 08:29:20;;;;;;;2.92;2.03;;;41.60;25.90;;;;;;5107704;28;20174;-71
2021/06/14 08:31:45;;;;;;;2.60;2.40;;;42.30;24.90;;;;;;5094567;28;20201;-71
2021/06/14 08:34:11;;;;;;;3.42;1.98;;;42.80;24.00;;;;;;5106960;28;20231;-71
2021/06/14 08:36:40;;;;;;;5.32;2.03;;;43.10;22.90;;;;;;5104869;28;20174;-71
2021/06/14 08:39:07;;;;;;;2.53;2.33;;;42.90;22.80;;;;;;5097450;28;20162;-71
2021/06/14 08:41:33;;;;;;;4.88;2.53;;;43.40;23.90;;;;;;5103984;28;20170;-71
2021/06/14 08:44:00;;;;;;;2.33;2.10;;;44.20;22.40;;;;;;5097931;28;20178;-71
2021/06/14 08:46:26;;;;;;;3.00;2.28;;;44.20;22.00;;;;;;5099110;27;20209;-71
2021/06/14 08:48:54;;;;;;;2.80;2.50;;;44.70;21.70;;;;;;5101558;28;20182;-71
2021/06/14 08:51:20;;;;;;;3.33;2.53;;;45.10;21.80;;;;;;5105639;28;20198;-71
2021/06/14 08:53:51;;;;;;;3.10;2.50;;;45.10;21.50;;;;;;5098378;28;20181;-71
2021/06/14 08:56:19;;;;;;;2.42;2.22;;;45.10;21.50;;;;;;5094975;28;20177;-72
2021/06/14 08:58:48;;;;;;;1.70;1.60;;;45.30;21.30;;;;;;5108491;28;20193;-71
2021/06/14 09:01:13;;;;;;;5.15;2.22;;;45.70;21.40;;;;;;5097246;28;20174;-72
2021/06/14 09:03:39;;;;;;;2.53;2.33;;;45.50;20.90;;;;;;5096114;27;20331;-71
2021/06/14 09:06:04;;;;;;;4.68;2.35;;;46.10;20.90;;;;;;5099047;28;20175;-71
2021/06/14 09:08:30;;;;;;;2.28;2.15;;;46.40;21.00;;;;;;5096046;28;20173;-72
2021/06/14 09:10:56;;;;;;;2.67;1.85;;;45.80;21.10;;;;;;5093815;28;20186;-72
2021/06/14 09:13:25;;;;;;;2.10;1.90;;;45.50;21.30;;;;;;5101429;28;20176;-71
2021/06/14 09:15:56;;;;;;;4.28;2.15;;;45.50;20.50;;;;;;5095415;28;20170;-72
2021/06/14 09:18:26;;;;;;;2.55;2.17;;;44.70;20.50;;;;;;5097188;28;20737;-72
2021/06/14 09:20:54;;;;;;;2.30;2.20;;;44.30;21.50;;;;;;5097220;28;20188;-72
2021/06/14 09:23:21;;;;;;;5.00;2.60;;;44.40;21.10;;;;;;5092513;28;20246;-72
2021/06/14 09:25:47;;;;;;;3.78;2.58;;;44.20;21.50;;;;;;5097098;28;20212;-72
2021/06/14 09:28:14;;;;;;;3.00;2.30;;;43.30;22.10;;;;;;5096021;28;20716;-72
2021/06/14 09:30:39;;;;;;;2.20;2.00;;;42.70;22.90;;;;;;5094732;28;20273;-72
2021/06/14 09:33:08;;;;;;;2.40;2.08;;;42.60;24.00;;;;;;5099330;28;20734;-72
2021/06/14 09:35:36;;;;;;;2.33;1.80;;;42.70;23.40;;;;;;5093976;28;20175;-72
2021/06/14 09:40:45;;;;;;;3.53;2.00;;;42.40;23.90;;;;;;5138811;27;20309;-72
2021/06/14 09:46:29;;;;;;;2.40;2.20;;;41.80;23.60;;;;;;5126227;27;20742;-71
2021/06/14 09:48:58;;;;;;;2.22;2.03;;;41.20;24.60;;;;;;5106619;28;20665;-71
2021/06/14 09:51:24;;;;;;;3.75;1.90;;;40.80;24.40;;;;;;5110732;28;20184;-71
2021/06/14 09:53:52;;;;;;;2.38;2.00;;;39.90;25.00;;;;;;5108984;28;20178;-71
2021/06/14 09:58:58;;;;;;;2.13;1.90;;;39.20;25.90;;;;;;5119021;27;20299;-72
2021/06/14 10:04:07;;;;;;;2.28;2.05;;;38.40;26.10;;;;;;5126703;27;20748;-71
2021/06/14 10:06:42;;;;;;;4.17;2.13;;;37.60;26.40;;;;;;5109306;28;20158;-71
2021/06/14 10:09:12;;;;;;;2.40;2.20;;;37.10;27.40;;;;;;5108113;28;20556;-70
2021/06/14 10:11:39;;;;;;;2.23;1.93;;;36.30;28.70;;;;;;5107863;28;20400;-71
2021/06/14 10:14:10;;;;;;;3.60;2.60;;;36.10;28.90;;;;;;5107582;28;20986;-70
2021/06/14 10:16:37;;;;;;;3.77;2.30;;;35.70;29.20;;;;;;5096797;28;20440;-70
2021/06/14 10:19:05;;;;;;;2.90;2.63;;;35.50;29.00;;;;;;5098467;28;20523;-70
2021/06/14 10:21:35;;;;;;;2.63;2.33;;;35.20;29.80;;;;;;5095411;28;20409;-70
2021/06/14 10:24:06;;;;;;;3.43;2.23;;;35.00;30.50;;;;;;5106070;28;20836;-70
2021/06/14 10:26:33;;;;;;;2.80;2.60;;;34.60;30.00;;;;;;5103570;28;20921;-70
2021/06/14 10:29:00;;;;;;;2.60;2.40;;;34.30;31.30;;;;;;5097261;28;20415;-70
2021/06/14 10:31:25;;;;;;;3.03;2.37;;;34.00;30.20;;;;;;5092349;28;20921;-70
2021/06/14 10:33:53;;;;;;;4.63;2.70;;;33.50;29.60;;;;;;5103551;28;20509;-70
2021/06/14 10:36:26;;;;;;;2.53;2.33;;;33.10;31.10;;;;;;5102494;28;20174;-72
2021/06/14 10:38:53;;;;;;;4.10;2.37;;;32.70;32.60;;;;;;5097260;28;20425;-72
2021/06/14 10:41:21;;;;;;;2.53;2.30;;;32.30;33.50;;;;;;5103280;28;20491;-72
2021/06/14 10:43:49;;;;;;;3.00;2.20;;;32.10;32.70;;;;;;5100583;28;20483;-72
2021/06/14 10:46:17;;;;;;;3.07;2.57;;;31.70;34.10;;;;;;5107866;28;20396;-72
2021/06/14 10:48:45;;;;;;;6.73;2.90;;;31.40;34.80;;;;;;5094394;28;20420;-72
2021/06/14 10:51:19;;;;;;;5.17;2.87;;;31.10;34.90;;;;;;5103653;28;20812;-72
2021/06/14 10:53:50;;;;;;;3.00;2.70;;;30.80;35.30;;;;;;5107447;28;20412;-72
2021/06/14 10:56:18;;;;;;;6.20;2.90;;;30.60;36.10;;;;;;5097351;28;20957;-72
2021/06/14 10:58:55;;;;;;;5.60;2.67;;;30.40;36.20;;;;;;5087623;28;20447;-72
2021/06/14 11:01:30;;;;;;;3.93;2.67;;;30.10;36.50;;;;;;5094083;28;20412;-72
2021/06/14 11:03:56;;;;;;;3.97;2.57;;;29.70;35.70;;;;;;5109686;28;20464;-72
2021/06/14 11:09:01;;;;;;;2.83;2.53;;;29.30;36.40;;;;;;5145124;27;20305;-71
2021/06/14 11:11:27;;;;;;;2.93;2.63;;;28.90;39.30;;;;;;5110324;28;20499;-71
2021/06/14 11:13:54;;;;;;;7.13;3.20;;;28.70;38.90;;;;;;5110809;28;20793;-71
2021/06/14 11:16:20;;;;;;;4.00;2.73;;;28.50;38.50;;;;;;5110480;28;20769;-71
2021/06/14 11:18:49;;;;;;;2.70;2.50;;;28.40;38.60;;;;;;5106234;28;20499;-72
2021/06/14 11:21:21;;;;;;;3.43;2.60;;;28.20;38.70;;;;;;5107737;28;20825;-71
2021/06/14 11:23:49;;;;;;;3.00;2.70;;;28.10;40.20;;;;;;5110542;28;20816;-71
2021/06/14 11:26:31;;;;;;;3.93;3.10;;;28.00;40.20;;;;;;5110358;28;20471;-71
2021/06/14 11:28:59;;;;;;;3.17;2.70;;;27.90;40.10;;;;;;5110150;28;20841;-71
2021/06/14 11:31:28;;;;;;;2.43;2.10;;;27.80;40.10;;;;;;5109819;28;20405;-72
2021/06/14 11:34:01;;;;;;;7.30;3.20;;;27.70;39.50;;;;;;5110604;28;20404;-72
2021/06/14 11:36:30;;;;;;;3.07;2.50;;;27.50;40.10;;;;;;5110373;28;20380;-71
2021/06/14 11:38:59;;;;;;;3.77;2.60;;;27.40;39.60;;;;;;5108876;28;20411;-71
2021/06/14 11:41:28;;;;;;;3.83;2.97;;;27.30;40.50;;;;;;5108825;28;20419;-71
2021/06/14 11:44:23;;;;;;;3.50;2.70;;;27.10;40.10;;;;;;5099651;28;20411;-71
2021/06/14 11:46:52;;;;;;;3.37;2.10;;;27.00;41.80;;;;;;5100586;28;20827;-71
2021/06/14 11:49:18;;;;;;;3.10;2.80;;;26.90;43.30;;;;;;5109033;28;20878;-71
2021/06/14 11:51:44;;;;;;;2.90;2.60;;;26.80;43.30;;;;;;5103209;28;20458;-71
2021/06/14 11:54:10;;;;;;;2.73;2.53;;;26.80;43.20;;;;;;5105885;28;20166;-71
2021/06/14 11:56:37;;;;;;;2.93;2.03;;;26.70;43.00;;;;;;5109323;28;20940;-71
2021/06/14 11:59:04;;;;;;;2.60;2.33;;;26.70;42.70;;;;;;5105180;28;20186;-71
2021/06/14 12:01:33;;;;;;;6.33;3.20;;;26.60;43.20;;;;;;5099608;28;20420;-71
2021/06/14 12:04:02;;;;;;;4.93;3.80;;;26.50;42.40;;;;;;5105761;28;20454;-71
2021/06/14 12:06:40;;;;;;;5.30;3.23;;;26.40;43.00;;;;;;5108087;28;20821;-71
2021/06/14 12:09:08;;;;;;;3.27;2.63;;;26.30;43.70;;;;;;5108356;28;20419;-71
2021/06/14 12:11:34;;;;;;;3.53;2.90;;;26.30;45.00;;;;;;5102591;28;20411;-71
2021/06/14 12:14:17;;;;;;;3.20;2.80;;;26.20;45.00;;;;;;5106171;28;20803;-71
2021/06/14 12:16:44;;;;;;;2.40;2.10;;;26.20;45.20;;;;;;5105383;28;20166;-71
2021/06/14 12:19:10;;;;;;;6.20;2.40;;;26.20;45.30;;;;;;5095133;28;20417;-71
2021/06/14 12:21:36;;;;;;;3.43;2.60;;;26.20;45.50;;;;;;5078870;28;20797;-71
2021/06/14 12:24:02;;;;;;;3.30;2.50;;;26.10;44.40;;;;;;5095473;28;20413;-71
2021/06/14 12:26:39;;;;;;;3.80;2.80;;;26.00;45.80;;;;;;5086602;28;20805;-71
2021/06/14 12:29:05;;;;;;;4.50;2.70;;;25.90;44.80;;;;;;5079112;28;20401;-71
2021/06/14 12:31:30;;;;;;;2.50;2.20;;;25.90;45.10;;;;;;5083724;28;20832;-71
2021/06/14 12:33:56;;;;;;;6.00;3.27;;;25.80;44.50;;;;;;5094389;28;20504;-71
2021/06/14 12:36:22;;;;;;;3.93;2.20;;;25.80;45.10;;;;;;5086705;28;20183;-71
2021/06/14 12:38:49;;;;;;;2.67;2.47;;;25.70;44.10;;;;;;5085911;28;20175;-71
2021/06/14 12:41:17;;;;;;;5.60;2.43;;;25.70;46.40;;;;;;5090724;28;20217;-70
2021/06/14 12:43:42;;;;;;;3.10;2.70;;;25.60;46.50;;;;;;5090546;28;20413;-71
2021/06/14 12:46:08;;;;;;;2.87;2.47;;;25.60;46.40;;;;;;5089813;28;20481;-71
2021/06/14 12:48:34;;;;;;;3.33;2.20;;;25.50;45.10;;;;;;5086891;28;20264;-71
2021/06/14 12:50:59;;;;;;;5.43;2.70;;;25.60;43.60;;;;;;5084624;28;20195;-71
2021/06/14 12:53:28;;;;;;;2.73;2.47;;;25.60;46.00;;;;;;5087652;28;20210;-71
2021/06/14 12:55:55;;;;;;;4.93;2.33;;;25.50;46.40;;;;;;5087989;28;20633;-71
2021/06/14 12:58:28;;;;;;;3.47;2.60;;;25.50;47.00;;;;;;5090608;28;20792;-71
2021/06/14 13:03:29;;;;;;;2.00;1.80;;;25.50;46.10;;;;;;5140257;27;20283;-71
2021/06/14 13:05:55;;;;;;;3.43;3.00;;;25.40;44.90;;;;;;5129155;27;20767;-71
2021/06/14 13:08:33;;;;;;;3.27;2.53;;;25.40;46.30;;;;;;5113215;27;20425;-71